createdAt,value
2023-01-05T00:01:50.161Z,61.87
2023-01-05T00:04:18.241Z,67.33
2023-01-05T00:06:46.324Z,72.07
2023-01-05T00:09:15.960Z,60.03
2023-01-05T00:12:01.385Z,66.43
2023-01-05T00:14:48.947Z,77.63
2023-01-05T00:17:35.926Z,67.37
2023-01-05T00:20:21.366Z,65.73
2023-01-05T00:22:50.086Z,71.40
2023-01-05T00:25:18.822Z,81.67
2023-01-05T00:27:48.183Z,64.07
2023-01-05T00:30:18.462Z,74.20
2023-01-05T00:32:46.493Z,78.43
2023-01-05T00:35:15.018Z,73.83
2023-01-05T00:37:43.110Z,67.03
2023-01-05T00:40:12.507Z,66.13
2023-01-05T00:42:40.488Z,58.67
2023-01-05T00:45:10.215Z,55.50
2023-01-05T00:47:39.573Z,78.20
2023-01-05T00:50:08.958Z,68.93
2023-01-05T00:52:36.921Z,56.70
2023-01-05T00:55:05.189Z,81.50
2023-01-05T00:57:33.150Z,70.93
2023-01-05T01:00:02.137Z,62.60
2023-01-05T01:02:30.293Z,73.87
2023-01-05T01:04:59.704Z,62.03
2023-01-05T01:07:27.706Z,59.10
2023-01-05T01:09:55.674Z,62.20
2023-01-05T01:12:23.630Z,56.40
2023-01-05T01:14:51.657Z,58.57
2023-01-05T01:17:19.610Z,63.57
2023-01-05T01:19:47.541Z,54.47
2023-01-05T01:22:16.899Z,60.97
2023-01-05T01:24:45.065Z,59.27
2023-01-05T01:27:13.099Z,68.70
2023-01-05T01:29:41.065Z,56.63
2023-01-05T01:32:08.967Z,63.80
2023-01-05T01:34:36.927Z,59.60
2023-01-05T01:37:04.907Z,61.60
2023-01-05T01:39:34.343Z,70.77
2023-01-05T01:42:02.309Z,51.57
2023-01-05T01:44:52.978Z,61.30
2023-01-05T01:47:24.823Z,69.03
2023-01-05T01:49:52.861Z,67.90
2023-01-05T01:52:20.921Z,64.13
2023-01-05T01:54:50.261Z,68.07
2023-01-05T01:57:18.170Z,70.97
2023-01-05T01:59:46.108Z,67.47
2023-01-05T02:02:14.373Z,63.40
2023-01-05T02:04:42.438Z,82.03
2023-01-05T02:07:10.425Z,59.33
2023-01-05T02:09:38.395Z,57.60
2023-01-05T02:12:10.213Z,62.90
2023-01-05T02:14:40.476Z,69.70
2023-01-05T02:17:13.888Z,66.07
2023-01-05T02:20:12.895Z,80.03
2023-01-05T02:22:56.951Z,63.23
2023-01-05T02:25:38.555Z,59.83
2023-01-05T02:28:13.536Z,51.23
2023-01-05T02:31:01.353Z,61.27
2023-01-05T02:33:37.614Z,64.70
2023-01-05T02:36:08.182Z,70.73
2023-01-05T02:38:38.956Z,66.30
2023-01-05T02:41:09.228Z,57.93
2023-01-05T02:43:37.173Z,59.83
2023-01-05T02:46:06.809Z,79.63
2023-01-05T02:48:34.771Z,65.47
2023-01-05T02:51:03.609Z,64.43
2023-01-05T02:53:32.864Z,71.33
2023-01-05T02:56:02.754Z,68.27
2023-01-05T02:58:32.788Z,61.50
2023-01-05T03:01:02.029Z,48.27
2023-01-05T03:03:32.823Z,61.90
2023-01-05T03:06:02.829Z,50.13
2023-01-05T03:08:33.074Z,71.67
2023-01-05T03:11:20.938Z,65.67
2023-01-05T03:13:50.077Z,57.67
2023-01-05T03:16:21.055Z,62.53
2023-01-05T03:19:07.963Z,64.50
2023-01-05T03:21:53.356Z,62.67
2023-01-05T03:24:38.545Z,63.83
2023-01-05T03:27:24.544Z,54.23
2023-01-05T03:30:10.338Z,55.73
2023-01-05T03:32:56.226Z,50.27
2023-01-05T03:35:31.760Z,57.17
2023-01-05T03:38:01.869Z,59.93
2023-01-05T03:40:31.008Z,48.30
2023-01-05T03:42:59.066Z,71.00
2023-01-05T03:45:28.537Z,61.93
2023-01-05T03:47:56.988Z,55.73
2023-01-05T03:50:26.289Z,59.30
2023-01-05T03:52:54.247Z,55.70
2023-01-05T03:55:22.195Z,50.57
2023-01-05T03:57:50.142Z,59.67
2023-01-05T04:00:18.858Z,53.80
2023-01-05T04:02:46.891Z,46.97
2023-01-05T04:05:15.118Z,62.30
2023-01-05T04:07:44.476Z,59.97
2023-01-05T04:10:12.483Z,66.37
2023-01-05T04:12:40.464Z,58.13
2023-01-05T04:15:09.160Z,60.47
2023-01-05T04:17:37.143Z,51.77
2023-01-05T04:20:06.661Z,59.33
2023-01-05T04:22:34.692Z,68.63
2023-01-05T04:25:03.986Z,51.97
2023-01-05T04:27:31.950Z,56.10
2023-01-05T04:29:59.927Z,57.17
2023-01-05T04:32:27.876Z,57.83
2023-01-05T04:34:55.792Z,52.63
2023-01-05T04:37:23.768Z,79.33
2023-01-05T04:39:51.750Z,58.73
2023-01-05T04:42:21.044Z,59.27
2023-01-05T04:44:48.947Z,71.37
2023-01-05T04:47:16.988Z,50.47
2023-01-05T04:49:44.927Z,49.10
2023-01-05T04:52:12.905Z,52.63
2023-01-05T04:54:40.817Z,67.83
2023-01-05T04:57:08.788Z,80.27
2023-01-05T04:59:38.107Z,60.10
2023-01-05T05:02:06.140Z,63.83
2023-01-05T05:04:34.326Z,71.57
2023-01-05T05:07:02.246Z,69.43
2023-01-05T05:09:30.166Z,54.83
2023-01-05T05:11:58.103Z,53.77
2023-01-05T05:14:26.153Z,54.10
2023-01-05T05:16:55.511Z,62.30
2023-01-05T05:19:23.412Z,54.30
2023-01-05T05:21:51.347Z,59.10
2023-01-05T05:24:19.289Z,60.03
2023-01-05T05:26:47.211Z,58.83
2023-01-05T05:29:15.163Z,55.73
2023-01-05T05:31:43.129Z,59.70
2023-01-05T05:34:12.499Z,45.47
2023-01-05T05:36:40.414Z,55.83
2023-01-05T05:39:08.385Z,54.83
2023-01-05T05:41:36.315Z,64.97
2023-01-05T05:44:04.249Z,52.43
2023-01-05T05:46:32.498Z,45.07
2023-01-05T05:49:00.535Z,56.33
2023-01-05T05:51:29.820Z,49.83
2023-01-05T05:53:57.847Z,51.30
2023-01-05T05:56:25.796Z,43.20
2023-01-05T05:59:00.820Z,57.17
2023-01-05T06:01:29.515Z,50.80
2023-01-05T06:03:57.578Z,43.83
2023-01-05T06:06:25.530Z,39.50
2023-01-05T06:08:54.821Z,63.97
2023-01-05T06:11:22.765Z,70.70
2023-01-05T06:13:50.821Z,57.93
2023-01-05T06:16:18.784Z,65.57
2023-01-05T06:18:46.753Z,53.07
2023-01-05T06:21:14.718Z,60.60
2023-01-05T06:23:42.654Z,60.57
2023-01-05T06:26:11.919Z,57.83
2023-01-05T06:28:39.859Z,67.13
2023-01-05T06:31:07.913Z,58.17
2023-01-05T06:33:35.943Z,56.07
2023-01-05T06:36:03.869Z,71.43
2023-01-05T06:38:31.808Z,64.33
2023-01-05T06:40:59.881Z,64.00
2023-01-05T06:43:29.280Z,72.20
2023-01-05T06:45:57.261Z,79.60
2023-01-05T06:48:25.258Z,66.63
2023-01-05T06:50:53.202Z,68.43
2023-01-05T06:53:21.168Z,57.07
2023-01-05T06:55:49.130Z,64.37
2023-01-05T06:58:17.074Z,69.37
2023-01-05T07:00:46.451Z,68.87
2023-01-05T07:03:14.718Z,63.70
2023-01-05T07:05:42.704Z,59.67
2023-01-05T07:08:10.659Z,60.47
2023-01-05T07:10:38.671Z,49.93
2023-01-05T07:13:06.616Z,61.70
2023-01-05T07:15:34.562Z,59.60
2023-01-05T07:18:03.851Z,43.23
2023-01-05T07:20:31.795Z,49.23
2023-01-05T07:22:59.760Z,46.87
2023-01-05T07:25:31.591Z,46.17
2023-01-05T07:27:59.670Z,60.17
2023-01-05T07:30:27.659Z,47.40
2023-01-05T07:32:59.196Z,54.87
2023-01-05T07:35:28.550Z,52.73
2023-01-05T07:37:57.293Z,48.73
2023-01-05T07:40:25.257Z,48.70
2023-01-05T07:42:53.443Z,52.23
2023-01-05T07:45:21.528Z,47.07
2023-01-05T07:47:49.470Z,46.10
2023-01-05T07:50:17.415Z,49.13
2023-01-05T07:52:46.751Z,50.13
2023-01-05T07:55:14.721Z,53.47
2023-01-05T07:57:42.647Z,45.27
2023-01-05T08:00:12.003Z,40.80
2023-01-05T08:02:40.020Z,60.13
2023-01-05T08:05:08.581Z,54.10
2023-01-05T08:07:36.569Z,43.53
2023-01-05T08:10:24.155Z,32.47
2023-01-05T08:13:09.536Z,39.90
2023-01-05T08:15:37.479Z,41.90
2023-01-05T08:18:05.528Z,41.73
2023-01-05T08:20:33.493Z,43.93
2023-01-05T08:23:01.468Z,43.67
2023-01-05T08:25:30.921Z,36.27
2023-01-05T08:27:58.874Z,39.13
2023-01-05T08:30:26.861Z,30.27
2023-01-05T08:32:54.763Z,29.40
2023-01-05T08:35:22.717Z,36.73
2023-01-05T08:37:50.676Z,28.47
2023-01-05T08:40:18.666Z,21.80
2023-01-05T08:42:48.631Z,27.50
2023-01-05T08:45:16.729Z,36.47
2023-01-05T08:47:44.743Z,52.07
2023-01-05T08:50:12.707Z,61.43
2023-01-05T08:52:40.632Z,56.87
2023-01-05T08:55:09.242Z,54.83
2023-01-05T08:57:37.199Z,47.03
2023-01-05T09:00:07.973Z,48.33
2023-01-05T09:02:36.227Z,34.87
2023-01-05T09:05:04.263Z,18.70
2023-01-05T09:07:32.238Z,17.03
2023-01-05T09:10:00.153Z,21.97
2023-01-05T09:12:33.015Z,19.00
2023-01-05T09:15:01.397Z,9.37
2023-01-05T09:17:30.720Z,15.03
2023-01-05T09:19:58.694Z,14.90
2023-01-05T09:22:26.628Z,14.20
2023-01-05T09:24:54.607Z,14.37
2023-01-05T09:27:22.556Z,34.50
2023-01-05T09:29:50.479Z,20.37
2023-01-05T09:32:18.390Z,15.43
2023-01-05T09:34:47.738Z,23.83
2023-01-05T09:37:15.802Z,11.57
2023-01-05T09:39:43.859Z,20.20
2023-01-05T09:42:13.884Z,14.80
2023-01-05T09:44:42.920Z,13.93
2023-01-05T09:47:15.040Z,20.40
2023-01-05T09:49:42.974Z,14.80
2023-01-05T09:52:12.411Z,19.47
2023-01-05T09:54:40.556Z,29.90
2023-01-05T09:57:14.011Z,44.30
2023-01-05T09:59:43.394Z,33.17
2023-01-05T10:02:17.336Z,30.67
2023-01-05T10:04:45.367Z,40.80
2023-01-05T10:07:19.564Z,32.77
2023-01-05T10:09:47.537Z,29.53
2023-01-05T10:12:38.316Z,29.13
2023-01-05T10:15:08.420Z,29.10
2023-01-05T10:17:42.640Z,24.50
2023-01-05T10:20:18.519Z,24.63
2023-01-05T10:22:54.208Z,18.73
2023-01-05T10:25:23.255Z,35.77
2023-01-05T10:27:56.828Z,25.87
2023-01-05T10:30:26.812Z,28.00
2023-01-05T10:33:26.621Z,35.77
2023-01-05T10:36:07.351Z,25.80
2023-01-05T10:38:45.196Z,32.07
2023-01-05T10:41:17.361Z,28.27
2023-01-05T10:43:56.278Z,32.00
2023-01-05T10:46:38.157Z,29.10
2023-01-05T10:49:09.017Z,39.23
2023-01-05T10:51:37.135Z,26.70
2023-01-05T10:54:06.795Z,38.43
2023-01-05T10:56:34.868Z,30.03
2023-01-05T10:59:09.712Z,21.93
2023-01-05T11:01:37.811Z,31.40
2023-01-05T11:04:36.299Z,20.93
2023-01-05T11:06:55.182Z,15.03
2023-01-05T11:09:26.523Z,20.07
2023-01-05T11:11:55.461Z,30.70
2023-01-05T11:14:23.480Z,26.97
2023-01-05T11:16:53.104Z,29.83
2023-01-05T11:19:23.187Z,28.90
2023-01-05T11:21:54.097Z,30.90
2023-01-05T11:24:31.732Z,27.23
2023-01-05T11:27:00.097Z,30.47
2023-01-05T11:29:28.048Z,21.43
2023-01-05T11:31:58.455Z,16.30
2023-01-05T11:34:44.303Z,23.30
2023-01-05T11:37:21.644Z,21.33
2023-01-05T11:39:52.633Z,20.17
2023-01-05T11:42:25.402Z,28.00
2023-01-05T11:44:55.400Z,35.23
2023-01-05T11:47:26.320Z,22.87
2023-01-05T11:50:10.093Z,34.93
2023-01-05T11:52:38.893Z,19.40
2023-01-05T11:55:34.032Z,21.60
2023-01-05T11:58:26.563Z,20.53
2023-01-05T12:01:11.387Z,13.27
2023-01-05T12:03:58.670Z,14.60
2023-01-05T12:06:36.860Z,13.47
2023-01-05T12:09:07.032Z,18.30
2023-01-05T12:11:38.903Z,10.53
2023-01-05T12:14:14.244Z,17.03
2023-01-05T12:16:46.628Z,12.10
2023-01-05T12:19:41.800Z,10.90
2023-01-05T12:22:36.655Z,13.83
2023-01-05T12:25:12.551Z,10.30
2023-01-05T12:28:01.751Z,21.53
2023-01-05T12:34:13.084Z,19.80
2023-01-05T12:36:45.987Z,10.77
2023-01-05T12:39:33.533Z,14.00
2023-01-05T12:42:11.171Z,8.13
2023-01-05T12:44:50.207Z,14.33
2023-01-05T12:47:37.561Z,33.93
2023-01-05T12:50:13.309Z,12.77
2023-01-05T12:52:42.145Z,12.13
2023-01-05T12:55:16.241Z,14.10
2023-01-05T12:57:45.879Z,22.10
2023-01-05T13:00:16.331Z,20.53
2023-01-05T13:02:45.489Z,14.37
2023-01-05T13:05:17.492Z,13.77
2023-01-05T13:07:48.896Z,20.27
2023-01-05T13:10:20.933Z,17.00
2023-01-05T13:12:49.640Z,13.70
2023-01-05T13:15:21.383Z,23.87
2023-01-05T13:17:50.390Z,20.30
2023-01-05T13:20:28.201Z,25.00
2023-01-05T13:22:59.763Z,26.57
2023-01-05T13:25:29.259Z,38.00
2023-01-05T13:27:57.324Z,12.80
2023-01-05T13:30:28.576Z,9.77
2023-01-05T13:33:09.752Z,14.90
2023-01-05T13:35:52.001Z,10.30
2023-01-05T13:38:50.540Z,12.73
2023-01-05T13:41:39.717Z,11.10
2023-01-05T13:44:28.705Z,8.10
2023-01-05T13:47:14.229Z,15.63
2023-01-05T13:50:37.177Z,16.80
2023-01-05T13:53:07.615Z,10.43
2023-01-05T13:55:37.049Z,10.60
2023-01-05T13:58:05.095Z,16.20
2023-01-05T14:00:34.832Z,22.73
2023-01-05T14:03:07.974Z,20.13
2023-01-05T14:05:48.639Z,32.33
2023-01-05T14:08:20.465Z,29.43
2023-01-05T14:11:08.101Z,21.43
2023-01-05T14:13:51.912Z,19.40
2023-01-05T14:16:51.195Z,23.87
2023-01-05T14:19:53.472Z,19.90
2023-01-05T14:22:36.670Z,22.13
2023-01-05T14:25:41.667Z,50.97
2023-01-05T14:28:23.836Z,49.80
2023-01-05T14:30:52.285Z,35.87
2023-01-05T14:33:20.387Z,32.63
2023-01-05T14:35:49.753Z,40.47
2023-01-05T14:38:20.533Z,46.93
2023-01-05T14:40:51.279Z,27.63
2023-01-05T14:43:36.763Z,26.93
2023-01-05T14:46:07.199Z,35.70
2023-01-05T14:48:36.087Z,36.87
2023-01-05T14:51:17.186Z,41.23
2023-01-05T14:53:45.943Z,51.13
2023-01-05T14:56:19.810Z,45.47
2023-01-05T14:59:15.821Z,36.10
2023-01-05T15:01:48.544Z,34.93
2023-01-05T15:04:17.528Z,41.10
2023-01-05T15:06:56.260Z,26.17
2023-01-05T15:09:36.219Z,35.23
2023-01-05T15:12:24.038Z,21.63
2023-01-05T15:15:25.523Z,20.73
2023-01-05T15:18:31.436Z,18.97
2023-01-05T15:21:11.892Z,24.47
2023-01-05T15:24:15.273Z,14.13
2023-01-05T15:26:58.529Z,16.70
2023-01-05T15:29:40.786Z,18.10
2023-01-05T15:32:12.265Z,15.60
2023-01-05T15:34:45.311Z,16.63
2023-01-05T15:37:15.061Z,16.60
2023-01-05T15:39:47.015Z,21.90
2023-01-05T15:42:17.648Z,23.83
2023-01-05T15:44:48.436Z,27.53
2023-01-05T15:47:16.508Z,32.83
2023-01-05T15:49:44.760Z,69.97
2023-01-05T15:52:20.409Z,67.97
2023-01-05T15:54:58.388Z,45.33
2023-01-05T15:57:27.728Z,32.67
2023-01-05T15:59:55.643Z,22.10
2023-01-05T16:02:24.537Z,39.13
2023-01-05T16:05:12.673Z,46.73
2023-01-05T16:07:45.464Z,63.23
2023-01-05T16:10:24.554Z,453.13
2023-01-05T16:12:56.006Z,132.83
2023-01-05T16:15:23.983Z,127.07
2023-01-05T16:17:53.161Z,74.97
2023-01-05T16:20:22.151Z,103.27
2023-01-05T16:22:55.112Z,104.60
2023-01-05T16:25:26.642Z,89.07
2023-01-05T16:27:58.987Z,66.80
2023-01-05T16:30:32.175Z,61.10
2023-01-05T16:33:02.722Z,42.80
2023-01-05T16:35:36.136Z,56.00
2023-01-05T16:38:28.253Z,58.03
2023-01-05T16:41:11.919Z,91.50
2023-01-05T16:43:50.625Z,50.87
2023-01-05T16:46:40.163Z,76.23
2023-01-05T16:49:38.957Z,71.90
2023-01-05T16:52:23.423Z,56.90
2023-01-05T16:55:16.958Z,51.27
2023-01-05T16:57:47.861Z,52.27
2023-01-05T17:00:35.517Z,50.77
2023-01-05T17:03:04.449Z,38.17
2023-01-05T17:05:33.844Z,37.17
2023-01-05T17:08:05.326Z,27.37
2023-01-05T17:10:33.281Z,20.70
2023-01-05T17:13:02.591Z,35.87
2023-01-05T17:15:33.605Z,32.83
2023-01-05T17:18:02.999Z,40.07
2023-01-05T17:20:33.048Z,31.23
2023-01-05T17:23:01.038Z,49.57
2023-01-05T17:25:31.731Z,36.33
2023-01-05T17:27:59.709Z,36.37
2023-01-05T17:30:27.658Z,31.53
2023-01-05T17:32:55.636Z,36.63
2023-01-05T17:35:24.942Z,60.17
2023-01-05T17:37:52.966Z,32.60
2023-01-05T17:40:22.424Z,34.73
2023-01-05T17:42:50.476Z,71.60
2023-01-05T17:45:19.637Z,23.93
2023-01-05T17:47:48.534Z,43.43
2023-01-05T17:50:17.328Z,43.73
2023-01-05T17:52:46.701Z,32.73
2023-01-05T17:55:14.681Z,26.13
2023-01-05T17:57:42.991Z,22.93
2023-01-05T18:00:12.615Z,22.33
2023-01-05T18:02:40.611Z,27.07
2023-01-05T18:05:09.520Z,13.23
2023-01-05T18:07:37.754Z,24.83
2023-01-05T18:15:14.596Z,18.83
2023-01-05T18:17:43.077Z,17.27
2023-01-05T18:20:12.405Z,13.83
2023-01-05T18:22:40.370Z,9.50
2023-01-05T18:25:12.713Z,9.13
2023-01-05T18:27:41.005Z,9.10
2023-01-05T18:30:09.755Z,6.90
2023-01-05T18:32:37.737Z,12.87
2023-01-05T18:35:09.863Z,14.77
2023-01-05T18:37:38.832Z,9.87
2023-01-05T18:40:09.917Z,13.60
2023-01-05T18:42:38.023Z,13.47
2023-01-05T18:45:18.899Z,16.03
2023-01-05T18:47:56.294Z,40.77
2023-01-05T18:50:24.295Z,20.37
2023-01-05T18:52:52.246Z,21.90
2023-01-05T18:55:21.545Z,19.70
2023-01-05T18:57:49.483Z,14.30
2023-01-05T19:00:17.790Z,18.73
2023-01-05T19:02:45.748Z,14.50
2023-01-05T19:05:13.760Z,23.83
2023-01-05T19:07:41.697Z,22.83
2023-01-05T19:10:10.230Z,13.97
2023-01-05T19:12:39.561Z,15.50
2023-01-05T19:15:08.376Z,19.03
2023-01-05T19:17:36.369Z,21.10
2023-01-05T19:20:04.500Z,22.70
2023-01-05T19:22:34.571Z,21.67
2023-01-05T19:25:02.562Z,24.17
2023-01-05T19:27:30.531Z,19.40
2023-01-05T19:29:59.856Z,19.00
2023-01-05T19:32:27.844Z,20.17
2023-01-05T19:34:55.828Z,22.23
2023-01-05T19:37:23.812Z,24.43
2023-01-05T19:39:51.757Z,24.17
2023-01-05T19:42:19.744Z,20.03
2023-01-05T19:44:47.662Z,57.43
2023-01-05T19:47:17.010Z,42.07
2023-01-05T19:49:44.952Z,47.90
2023-01-05T19:52:13.860Z,33.57
2023-01-05T19:54:41.858Z,29.00
2023-01-05T19:57:09.795Z,10.70
2023-01-05T19:59:37.695Z,7.80
2023-01-05T20:02:06.194Z,7.13
2023-01-05T20:04:35.565Z,7.40
2023-01-05T20:07:04.475Z,4.80
2023-01-05T20:09:32.784Z,6.97
2023-01-05T20:12:13.182Z,4.83
2023-01-05T20:14:42.596Z,6.77
2023-01-05T20:17:11.824Z,15.60
2023-01-05T20:19:41.297Z,9.27
2023-01-05T20:22:13.684Z,2.30
2023-01-05T20:24:42.143Z,5.93
2023-01-05T20:27:11.340Z,3.30
2023-01-05T20:29:40.123Z,6.50
2023-01-05T20:32:09.157Z,5.80
2023-01-05T20:34:38.455Z,37.40
2023-01-05T20:37:08.905Z,8.87
2023-01-05T20:39:37.410Z,2.53
2023-01-05T20:42:05.598Z,9.57
2023-01-05T20:44:34.281Z,7.77
2023-01-05T20:47:03.298Z,2.50
2023-01-05T20:49:31.640Z,3.87
2023-01-05T20:51:59.614Z,17.13
2023-01-05T20:54:28.963Z,7.13
2023-01-05T20:56:56.895Z,5.57
2023-01-05T20:59:27.249Z,4.27
2023-01-05T21:01:55.401Z,3.03
2023-01-05T21:04:23.670Z,4.23
2023-01-05T21:06:54.259Z,4.10
2023-01-05T21:09:22.528Z,7.37
2023-01-05T21:11:51.887Z,4.93
2023-01-05T21:14:20.094Z,5.27
2023-01-05T21:16:49.112Z,4.97
2023-01-05T21:19:18.691Z,3.70
2023-01-05T21:21:46.733Z,5.80
2023-01-05T21:24:14.706Z,5.97
2023-01-05T21:26:42.687Z,2.90
2023-01-05T21:29:12.552Z,4.10
2023-01-05T21:31:40.585Z,4.07
2023-01-05T21:34:08.595Z,4.27
2023-01-05T21:36:38.410Z,4.23
2023-01-05T21:39:08.339Z,4.67
2023-01-05T21:42:00.135Z,2.50
2023-01-05T21:44:30.456Z,5.33
2023-01-05T21:46:58.443Z,3.00
2023-01-05T21:49:26.495Z,4.00
2023-01-05T21:52:11.838Z,3.17
2023-01-05T21:54:57.242Z,4.00
2023-01-05T21:57:25.326Z,1.80
2023-01-05T21:59:54.658Z,1.90
2023-01-05T22:02:22.592Z,3.23
2023-01-05T22:04:50.583Z,2.20
2023-01-05T22:07:18.505Z,9.40
2023-01-05T22:09:46.465Z,6.33
2023-01-05T22:12:14.406Z,4.80
2023-01-05T22:14:42.343Z,4.70
2023-01-05T22:17:11.662Z,5.43
2023-01-05T22:19:39.648Z,2.07
2023-01-05T22:22:07.609Z,2.30
2023-01-05T22:24:35.525Z,2.90
2023-01-05T22:27:03.516Z,1.60
2023-01-05T22:29:31.483Z,2.97
2023-01-05T22:32:01.834Z,3.40
2023-01-05T22:34:32.404Z,4.27
2023-01-05T22:37:00.383Z,3.40
2023-01-05T22:39:28.381Z,3.97
2023-01-05T22:41:56.349Z,2.40
2023-01-05T22:44:24.272Z,2.33
2023-01-05T22:46:52.220Z,3.00
2023-01-05T22:49:20.230Z,2.70
2023-01-05T22:51:49.572Z,5.80
2023-01-05T22:54:17.491Z,3.73
2023-01-05T22:56:45.479Z,1.77
2023-01-05T22:59:13.474Z,2.90
2023-01-05T23:01:43.608Z,4.50
2023-01-05T23:04:11.725Z,2.93
2023-01-05T23:06:39.692Z,4.83
2023-01-05T23:09:10.459Z,2.57
2023-01-05T23:11:39.360Z,2.27
2023-01-05T23:14:09.618Z,2.70
2023-01-05T23:16:37.636Z,3.33
2023-01-05T23:19:06.148Z,1.83
2023-01-05T23:21:34.250Z,16.97
2023-01-05T23:24:02.186Z,1.90
2023-01-05T23:26:31.595Z,3.50
2023-01-05T23:28:59.524Z,1.93
2023-01-05T23:31:27.494Z,3.67
2023-01-05T23:33:55.397Z,2.40
2023-01-05T23:36:23.804Z,2.17
2023-01-05T23:38:51.834Z,2.17
2023-01-05T23:41:19.845Z,2.10
2023-01-05T23:43:49.198Z,3.90
2023-01-05T23:46:20.190Z,4.77
2023-01-05T23:48:48.405Z,1.17
2023-01-05T23:51:17.132Z,2.67
2023-01-05T23:53:46.198Z,3.17
2023-01-05T23:56:15.049Z,3.93
2023-01-05T23:58:43.134Z,5.63
